createdAt,value
2018-10-19T00:00:26.134Z,1011.20
2018-10-19T00:01:26.100Z,1011.19
2018-10-19T00:02:26.078Z,1011.18
2018-10-19T00:03:26.049Z,1011.13
2018-10-19T00:04:26.026Z,1011.16
2018-10-19T00:05:26.000Z,1011.14
2018-10-19T00:06:25.969Z,1011.17
2018-10-19T00:07:25.949Z,1011.11
2018-10-19T00:08:25.917Z,1011.15
2018-10-19T00:09:25.891Z,1011.09
2018-10-19T00:10:25.875Z,1011.11
2018-10-19T00:11:25.846Z,1011.13
2018-10-19T00:12:25.820Z,1011.12
2018-10-19T00:13:25.788Z,1011.11
2018-10-19T00:14:25.779Z,1011.11
2018-10-19T00:15:25.738Z,1011.15
2018-10-19T00:16:25.716Z,1011.09
2018-10-19T00:17:25.696Z,1011.12
2018-10-19T00:18:25.659Z,1011.10
2018-10-19T00:19:25.637Z,1011.11
2018-10-19T00:20:25.607Z,1011.11
2018-10-19T00:21:25.588Z,1011.13
2018-10-19T00:22:25.560Z,1011.17
2018-10-19T00:23:25.532Z,1011.15
2018-10-19T00:24:25.506Z,1011.14
2018-10-19T00:25:25.483Z,1011.14
2018-10-19T00:26:25.448Z,1011.12
2018-10-19T00:27:25.426Z,1011.12
2018-10-19T00:28:25.398Z,1011.12
2018-10-19T00:29:25.379Z,1011.18
2018-10-19T00:30:25.359Z,1011.15
2018-10-19T00:31:25.323Z,1011.16
2018-10-19T00:32:25.296Z,1011.16
2018-10-19T00:33:25.282Z,1011.18
2018-10-19T00:34:25.240Z,1011.16
2018-10-19T00:35:25.221Z,1011.16
2018-10-19T00:36:25.195Z,1011.14
2018-10-19T00:37:25.161Z,1011.11
2018-10-19T00:38:25.145Z,1011.13
2018-10-19T00:39:25.115Z,1011.12
2018-10-19T00:40:25.090Z,1011.07
2018-10-19T00:41:25.063Z,1011.06
2018-10-19T00:42:25.035Z,1011.11
2018-10-19T00:43:25.005Z,1011.07
2018-10-19T00:44:24.990Z,1011.10
2018-10-19T00:45:24.976Z,1011.06
2018-10-19T00:46:24.934Z,1011.03
2018-10-19T00:47:24.910Z,1011.06
2018-10-19T00:48:24.877Z,1011.04
2018-10-19T00:49:24.858Z,1011.06
2018-10-19T00:50:24.826Z,1011.00
2018-10-19T00:51:24.799Z,1011.05
2018-10-19T00:52:24.779Z,1011.03
2018-10-19T00:53:24.747Z,1011.04
2018-10-19T00:54:24.724Z,1011.01
2018-10-19T00:55:24.700Z,1011.04
2018-10-19T00:56:24.668Z,1011.02
2018-10-19T00:57:24.649Z,1011.03
2018-10-19T00:58:24.615Z,1011.03
2018-10-19T00:59:24.591Z,1011.06
2018-10-19T01:00:24.571Z,1011.04
2018-10-19T01:01:24.539Z,1011.07
2018-10-19T01:02:24.518Z,1011.07
2018-10-19T01:03:24.490Z,1011.09
2018-10-19T01:04:24.464Z,1011.11
2018-10-19T01:05:24.441Z,1011.07
2018-10-19T01:06:24.460Z,1011.07
2018-10-19T01:07:24.390Z,1011.08
2018-10-19T01:08:24.357Z,1011.08
2018-10-19T01:09:24.330Z,1011.07
2018-10-19T01:10:24.314Z,1011.08
2018-10-19T01:11:24.277Z,1011.07
2018-10-19T01:12:24.259Z,1011.12
2018-10-19T01:13:24.229Z,1011.09
2018-10-19T01:14:24.208Z,1011.08
2018-10-19T01:15:24.172Z,1011.08
2018-10-19T01:16:24.153Z,1011.07
2018-10-19T01:17:24.127Z,1011.06
2018-10-19T01:18:24.094Z,1011.05
2018-10-19T01:19:24.072Z,1011.05
2018-10-19T01:20:24.043Z,1011.06
2018-10-19T01:21:24.020Z,1011.05
2018-10-19T01:22:23.992Z,1011.01
2018-10-19T01:23:23.970Z,1010.99
2018-10-19T01:24:23.941Z,1011.00
2018-10-19T01:25:23.925Z,1011.05
2018-10-19T01:26:23.890Z,1010.98
2018-10-19T01:27:23.867Z,1010.94
2018-10-19T01:28:23.840Z,1010.96
2018-10-19T01:29:23.813Z,1010.97
2018-10-19T01:30:23.782Z,1010.95
2018-10-19T01:31:23.761Z,1010.95
2018-10-19T01:32:23.733Z,1010.99
2018-10-19T01:33:23.706Z,1011.02
2018-10-19T01:34:23.697Z,1010.95
2018-10-19T01:35:23.654Z,1010.92
2018-10-19T01:36:23.634Z,1010.92
2018-10-19T01:37:23.607Z,1010.89
2018-10-19T01:38:23.573Z,1010.88
2018-10-19T01:39:23.552Z,1010.87
2018-10-19T01:40:23.529Z,1010.87
2018-10-19T01:41:23.497Z,1010.88
2018-10-19T01:42:23.474Z,1010.88
2018-10-19T01:43:23.451Z,1010.86
2018-10-19T01:44:23.418Z,1010.91
2018-10-19T01:45:23.394Z,1010.90
2018-10-19T01:46:23.369Z,1010.89
2018-10-19T01:47:23.342Z,1010.89
2018-10-19T01:48:23.317Z,1010.91
2018-10-19T01:49:23.290Z,1010.93
2018-10-19T01:50:23.262Z,1010.89
2018-10-19T01:51:23.238Z,1010.92
2018-10-19T01:52:23.209Z,1010.91
2018-10-19T01:53:23.184Z,1010.93
2018-10-19T01:54:23.160Z,1010.93
2018-10-19T01:55:23.139Z,1010.93
2018-10-19T01:56:23.107Z,1010.94
2018-10-19T01:57:23.082Z,1010.93
2018-10-19T01:58:23.054Z,1010.91
2018-10-19T01:59:23.026Z,1010.89
2018-10-19T02:00:23.007Z,1010.91
2018-10-19T02:01:22.985Z,1010.90
2018-10-19T02:02:22.948Z,1010.94
2018-10-19T02:03:22.924Z,1011.00
2018-10-19T02:04:22.903Z,1010.99
2018-10-19T02:05:22.874Z,1010.99
2018-10-19T02:06:22.847Z,1010.97
2018-10-19T02:07:22.824Z,1010.99
2018-10-19T02:08:22.790Z,1010.98
2018-10-19T02:09:22.767Z,1010.96
2018-10-19T02:10:22.740Z,1011.00
2018-10-19T02:11:22.713Z,1010.99
2018-10-19T02:12:22.690Z,1011.02
2018-10-19T02:13:22.666Z,1011.03
2018-10-19T02:14:22.644Z,1010.98
2018-10-19T02:15:22.610Z,1011.03
2018-10-19T02:16:22.588Z,1011.00
2018-10-19T02:17:22.570Z,1011.02
2018-10-19T02:18:22.529Z,1011.02
2018-10-19T02:19:22.510Z,1010.97
2018-10-19T02:20:22.488Z,1011.01
2018-10-19T02:21:22.449Z,1011.01
2018-10-19T02:22:22.435Z,1011.00
2018-10-19T02:23:22.399Z,1011.02
2018-10-19T02:24:22.386Z,1011.02
2018-10-19T02:25:22.347Z,1011.05
2018-10-19T02:26:22.324Z,1011.06
2018-10-19T02:27:22.305Z,1011.08
2018-10-19T02:28:22.279Z,1011.02
2018-10-19T02:29:22.240Z,1011.04
2018-10-19T02:30:22.218Z,1011.04
2018-10-19T02:31:22.194Z,1010.99
2018-10-19T02:32:22.166Z,1011.01
2018-10-19T02:33:22.137Z,1011.02
2018-10-19T02:34:22.120Z,1011.00
2018-10-19T02:35:22.087Z,1011.01
2018-10-19T02:36:22.072Z,1011.02
2018-10-19T02:37:22.041Z,1011.02
2018-10-19T02:38:22.010Z,1011.03
2018-10-19T02:39:21.990Z,1011.03
2018-10-19T02:40:21.954Z,1011.05
2018-10-19T02:41:21.936Z,1010.98
2018-10-19T02:42:21.905Z,1010.98
2018-10-19T02:43:21.880Z,1011.02
2018-10-19T02:44:21.859Z,1010.99
2018-10-19T02:45:21.827Z,1010.97
2018-10-19T02:46:21.802Z,1010.99
2018-10-19T02:47:21.781Z,1010.97
2018-10-19T02:48:21.746Z,1010.98
2018-10-19T02:49:21.731Z,1010.99
2018-10-19T02:50:21.693Z,1011.00
2018-10-19T02:51:21.671Z,1010.98
2018-10-19T02:52:21.647Z,1010.97
2018-10-19T02:53:21.617Z,1010.95
2018-10-19T02:54:21.596Z,1010.96
2018-10-19T02:55:21.567Z,1010.94
2018-10-19T02:56:21.549Z,1010.94
2018-10-19T02:57:21.522Z,1010.91
2018-10-19T02:58:21.491Z,1010.93
2018-10-19T02:59:21.466Z,1010.93
2018-10-19T03:00:21.613Z,1010.92
2018-10-19T03:01:21.411Z,1010.93
2018-10-19T03:02:21.380Z,1010.90
2018-10-19T03:03:21.359Z,1010.94
2018-10-19T03:04:21.336Z,1010.92
2018-10-19T03:05:21.305Z,1010.97
2018-10-19T03:06:21.283Z,1010.93
2018-10-19T03:07:21.256Z,1010.95
2018-10-19T03:08:21.227Z,1010.96
2018-10-19T03:09:21.210Z,1010.97
2018-10-19T03:10:21.173Z,1011.01
2018-10-19T03:11:21.182Z,1011.02
2018-10-19T03:12:21.124Z,1011.02
2018-10-19T03:13:21.101Z,1010.98
2018-10-19T03:14:21.073Z,1010.99
2018-10-19T03:15:21.061Z,1010.98
2018-10-19T03:16:21.021Z,1010.99
2018-10-19T03:17:20.996Z,1010.94
2018-10-19T03:18:20.970Z,1010.95
2018-10-19T03:19:20.940Z,1010.93
2018-10-19T03:20:20.913Z,1010.91
2018-10-19T03:21:20.888Z,1010.91
2018-10-19T03:22:20.862Z,1010.97
2018-10-19T03:23:20.836Z,1010.94
2018-10-19T03:24:20.812Z,1010.94
2018-10-19T03:25:20.793Z,1010.94
2018-10-19T03:26:20.763Z,1010.92
2018-10-19T03:27:20.802Z,1010.89
2018-10-19T03:28:20.702Z,1010.86
2018-10-19T03:29:20.835Z,1010.86
2018-10-19T03:30:20.658Z,1010.86
2018-10-19T03:31:20.628Z,1010.85
2018-10-19T03:32:20.599Z,1010.87
2018-10-19T03:33:20.573Z,1010.86
2018-10-19T03:34:20.547Z,1010.89
2018-10-19T03:35:20.522Z,1010.91
2018-10-19T03:36:20.497Z,1010.87
2018-10-19T03:37:20.469Z,1010.91
2018-10-19T03:38:20.449Z,1010.90
2018-10-19T03:39:20.422Z,1010.94
2018-10-19T03:40:20.384Z,1010.93
2018-10-19T03:41:20.367Z,1010.94
2018-10-19T03:42:20.355Z,1010.90
2018-10-19T03:43:20.309Z,1010.97
2018-10-19T03:44:20.291Z,1010.95
2018-10-19T03:45:20.264Z,1010.94
2018-10-19T03:46:20.245Z,1010.94
2018-10-19T03:47:20.248Z,1010.93
2018-10-19T03:48:20.183Z,1010.94
2018-10-19T03:49:20.238Z,1010.94
2018-10-19T03:50:20.133Z,1010.95
2018-10-19T03:51:20.161Z,1010.92
2018-10-19T03:52:20.090Z,1010.94
2018-10-19T03:53:20.132Z,1010.92
2018-10-19T03:54:20.023Z,1010.95
2018-10-19T03:55:20.008Z,1010.93
2018-10-19T03:56:19.970Z,1010.96
2018-10-19T03:57:19.943Z,1011.00
2018-10-19T03:58:19.922Z,1010.96
2018-10-19T03:59:19.910Z,1010.95
2018-10-19T04:00:19.879Z,1010.98
2018-10-19T04:01:19.840Z,1010.93
2018-10-19T04:02:19.817Z,1010.98
2018-10-19T04:03:19.865Z,1010.98
2018-10-19T04:04:19.767Z,1011.03
2018-10-19T04:05:19.733Z,1011.05
2018-10-19T04:06:19.708Z,1011.06
2018-10-19T04:07:19.688Z,1011.06
2018-10-19T04:08:19.657Z,1011.06
2018-10-19T04:09:19.703Z,1011.09
2018-10-19T04:10:19.613Z,1011.09
2018-10-19T04:11:19.582Z,1011.10
2018-10-19T04:12:19.551Z,1011.08
2018-10-19T04:13:19.530Z,1011.10
2018-10-19T04:14:19.498Z,1011.12
2018-10-19T04:15:19.551Z,1011.11
2018-10-19T04:16:19.449Z,1011.12
2018-10-19T04:17:19.423Z,1011.14
2018-10-19T04:18:19.389Z,1011.15
2018-10-19T04:19:19.369Z,1011.19
2018-10-19T04:20:19.346Z,1011.17
2018-10-19T04:21:19.438Z,1011.14
2018-10-19T04:22:19.295Z,1011.22
2018-10-19T04:23:19.267Z,1011.15
2018-10-19T04:24:19.235Z,1011.16
2018-10-19T04:25:19.211Z,1011.16
2018-10-19T04:26:19.180Z,1011.14
2018-10-19T04:27:19.312Z,1011.17
2018-10-19T04:28:19.129Z,1011.18
2018-10-19T04:29:19.110Z,1011.13
2018-10-19T04:30:19.079Z,1011.16
2018-10-19T04:31:19.049Z,1011.12
2018-10-19T04:32:19.036Z,1011.15
2018-10-19T04:33:19.055Z,1011.15
2018-10-19T04:34:18.978Z,1011.10
2018-10-19T04:35:18.948Z,1011.04
2018-10-19T04:36:18.929Z,1011.11
2018-10-19T04:37:18.890Z,1011.09
2018-10-19T04:38:18.869Z,1011.14
2018-10-19T04:39:18.982Z,1011.13
2018-10-19T04:40:18.816Z,1011.13
2018-10-19T04:41:18.915Z,1011.12
2018-10-19T04:42:18.760Z,1011.13
2018-10-19T04:43:18.734Z,1011.17
2018-10-19T04:44:18.710Z,1011.15
2018-10-19T04:45:18.923Z,1011.14
2018-10-19T04:46:18.660Z,1011.11
2018-10-19T04:47:18.631Z,1011.08
2018-10-19T04:48:18.605Z,1011.11
2018-10-19T04:49:18.581Z,1011.08
2018-10-19T04:50:18.552Z,1011.10
2018-10-19T04:51:18.571Z,1011.11
2018-10-19T04:52:18.496Z,1011.10
2018-10-19T04:53:18.554Z,1011.10
2018-10-19T04:54:18.452Z,1011.08
2018-10-19T04:55:18.417Z,1011.10
2018-10-19T04:56:18.399Z,1011.08
2018-10-19T04:57:18.391Z,1011.10
2018-10-19T04:58:18.347Z,1011.10
2018-10-19T04:59:18.321Z,1011.07
2018-10-19T05:00:18.288Z,1011.12
2018-10-19T05:01:18.266Z,1011.09
2018-10-19T05:02:18.233Z,1011.08
2018-10-19T05:03:18.386Z,1011.13
2018-10-19T05:04:18.191Z,1011.13
2018-10-19T05:05:18.333Z,1011.10
2018-10-19T05:06:18.148Z,1011.16
2018-10-19T05:07:18.107Z,1011.16
2018-10-19T05:08:18.190Z,1011.21
2018-10-19T05:09:18.050Z,1011.20
2018-10-19T05:10:18.020Z,1011.15
2018-10-19T05:11:18.073Z,1011.18
2018-10-19T05:12:18.028Z,1011.19
2018-10-19T05:13:17.956Z,1011.23
2018-10-19T05:14:18.005Z,1011.21
2018-10-19T05:15:17.893Z,1011.19
2018-10-19T05:16:17.869Z,1011.23
2018-10-19T05:17:17.895Z,1011.20
2018-10-19T05:18:17.821Z,1011.20
2018-10-19T05:19:17.791Z,1011.23
2018-10-19T05:20:17.820Z,1011.21
2018-10-19T05:21:17.746Z,1011.16
2018-10-19T05:22:17.707Z,1011.18
2018-10-19T05:23:17.738Z,1011.20
2018-10-19T05:24:17.661Z,1011.14
2018-10-19T05:25:17.630Z,1011.19
2018-10-19T05:26:17.798Z,1011.14
2018-10-19T05:27:17.732Z,1011.18
2018-10-19T05:28:17.552Z,1011.18
2018-10-19T05:29:17.591Z,1011.21
2018-10-19T05:30:17.503Z,1011.22
2018-10-19T05:31:17.474Z,1011.20
2018-10-19T05:32:17.454Z,1011.21
2018-10-19T05:33:17.429Z,1011.23
2018-10-19T05:34:17.398Z,1011.23
2018-10-19T05:35:17.421Z,1011.24
2018-10-19T05:36:17.341Z,1011.25
2018-10-19T05:37:17.314Z,1011.22
2018-10-19T05:38:17.347Z,1011.23
2018-10-19T05:39:17.275Z,1011.20
2018-10-19T05:40:17.238Z,1011.26
2018-10-19T05:41:17.318Z,1011.19
2018-10-19T05:42:17.185Z,1011.23
2018-10-19T05:43:17.158Z,1011.23
2018-10-19T05:44:17.173Z,1011.21
2018-10-19T05:45:17.110Z,1011.24
2018-10-19T05:46:17.083Z,1011.22
2018-10-19T05:47:17.125Z,1011.26
2018-10-19T05:48:17.025Z,1011.25
2018-10-19T05:49:17.004Z,1011.23
2018-10-19T05:50:17.012Z,1011.24
2018-10-19T05:51:16.949Z,1011.25
2018-10-19T05:52:16.958Z,1011.26
2018-10-19T05:53:16.967Z,1011.27
2018-10-19T05:54:16.868Z,1011.25
2018-10-19T05:55:16.844Z,1011.24
2018-10-19T05:56:16.965Z,1011.22
2018-10-19T05:57:16.792Z,1011.24
2018-10-19T05:58:16.770Z,1011.25
2018-10-19T05:59:16.782Z,1011.28
2018-10-19T06:00:16.723Z,1011.25
2018-10-19T06:01:16.688Z,1011.28
2018-10-19T06:02:16.776Z,1011.32
2018-10-19T06:03:16.636Z,1011.29
2018-10-19T06:04:16.608Z,1011.31
2018-10-19T06:05:16.615Z,1011.30
2018-10-19T06:06:16.560Z,1011.32
2018-10-19T06:07:16.528Z,1011.29
2018-10-19T06:08:16.567Z,1011.29
2018-10-19T06:09:16.486Z,1011.29
2018-10-19T06:10:16.456Z,1011.28
2018-10-19T06:11:16.490Z,1011.30
2018-10-19T06:12:16.398Z,1011.30
2018-10-19T06:13:16.371Z,1011.28
2018-10-19T06:14:16.432Z,1011.27
2018-10-19T06:15:16.422Z,1011.28
2018-10-19T06:16:16.293Z,1011.31
2018-10-19T06:17:16.266Z,1011.32
2018-10-19T06:18:16.242Z,1011.36
2018-10-19T06:19:16.224Z,1011.38
2018-10-19T06:20:16.258Z,1011.39
2018-10-19T06:21:16.261Z,1011.42
2018-10-19T06:22:16.216Z,1011.35
2018-10-19T06:23:16.166Z,1011.41
2018-10-19T06:24:16.088Z,1011.40
2018-10-19T06:25:16.060Z,1011.36
2018-10-19T06:26:16.032Z,1011.40
2018-10-19T06:27:16.016Z,1011.36
2018-10-19T06:28:16.026Z,1011.41
2018-10-19T06:29:16.033Z,1011.39
2018-10-19T06:30:15.931Z,1011.37
2018-10-19T06:31:15.906Z,1011.40
2018-10-19T06:32:15.926Z,1011.42
2018-10-19T06:33:15.846Z,1011.36
2018-10-19T06:34:15.827Z,1011.42
2018-10-19T06:35:15.855Z,1011.39
2018-10-19T06:36:15.774Z,1011.36
2018-10-19T06:37:15.791Z,1011.37
2018-10-19T06:38:15.787Z,1011.42
2018-10-19T06:39:15.714Z,1011.40
2018-10-19T06:40:15.661Z,1011.39
2018-10-19T06:41:15.670Z,1011.42
2018-10-19T06:42:15.653Z,1011.42
2018-10-19T06:43:15.589Z,1011.42
2018-10-19T06:44:15.746Z,1011.43
2018-10-19T06:45:15.540Z,1011.44
2018-10-19T06:46:15.503Z,1011.45
2018-10-19T06:47:15.533Z,1011.43
2018-10-19T06:48:15.462Z,1011.42
2018-10-19T06:49:15.434Z,1011.44
2018-10-19T06:50:15.458Z,1011.47
2018-10-19T06:51:15.376Z,1011.44
2018-10-19T06:52:15.353Z,1011.49
2018-10-19T06:53:15.342Z,1011.45
2018-10-19T06:54:15.304Z,1011.47
2018-10-19T06:55:15.275Z,1011.52
2018-10-19T06:56:15.385Z,1011.47
2018-10-19T06:57:15.217Z,1011.51
2018-10-19T06:58:15.194Z,1011.49
2018-10-19T06:59:15.186Z,1011.51
2018-10-19T07:00:15.139Z,1011.49
2018-10-19T07:01:15.119Z,1011.52
2018-10-19T07:02:15.177Z,1011.51
2018-10-19T07:03:15.061Z,1011.48
2018-10-19T07:04:15.043Z,1011.51
2018-10-19T07:05:15.045Z,1011.53
2018-10-19T07:06:15.044Z,1011.52
2018-10-19T07:07:14.957Z,1011.58
2018-10-19T07:08:14.955Z,1011.56
2018-10-19T07:09:14.903Z,1011.56
2018-10-19T07:10:14.882Z,1011.53
2018-10-19T07:11:15.009Z,1011.51
2018-10-19T07:12:14.895Z,1011.55
2018-10-19T07:13:14.804Z,1011.48
2018-10-19T07:14:14.835Z,1011.53
2018-10-19T07:15:14.751Z,1011.52
2018-10-19T07:16:14.723Z,1011.48
2018-10-19T07:17:14.744Z,1011.56
2018-10-19T07:18:14.668Z,1011.54
2018-10-19T07:19:14.644Z,1011.55
2018-10-19T07:20:14.691Z,1011.54
2018-10-19T07:21:14.598Z,1011.59
2018-10-19T07:22:14.567Z,1011.58
2018-10-19T07:23:14.587Z,1011.61
2018-10-19T07:24:14.512Z,1011.60
2018-10-19T07:25:14.494Z,1011.60
2018-10-19T07:26:14.540Z,1011.64
2018-10-19T07:27:14.488Z,1011.61
2018-10-19T07:28:14.439Z,1011.63
2018-10-19T07:29:14.436Z,1011.63
2018-10-19T07:30:14.410Z,1011.60
2018-10-19T07:31:14.335Z,1011.63
2018-10-19T07:32:14.384Z,1011.62
2018-10-19T07:33:14.277Z,1011.59
2018-10-19T07:34:14.251Z,1011.57
2018-10-19T07:35:14.310Z,1011.59
2018-10-19T07:36:14.219Z,1011.63
2018-10-19T07:37:14.174Z,1011.58
2018-10-19T07:38:14.258Z,1011.58
2018-10-19T07:39:14.162Z,1011.57
2018-10-19T07:40:14.103Z,1011.54
2018-10-19T07:41:14.160Z,1011.57
2018-10-19T07:42:14.134Z,1011.57
2018-10-19T07:43:14.024Z,1011.57
2018-10-19T07:44:14.035Z,1011.56
2018-10-19T07:45:13.971Z,1011.59
2018-10-19T07:46:13.944Z,1011.58
2018-10-19T07:47:14.053Z,1011.58
2018-10-19T07:48:13.964Z,1011.56
2018-10-19T07:49:13.859Z,1011.64
2018-10-19T07:50:13.902Z,1011.63
2018-10-19T07:51:13.815Z,1011.60
2018-10-19T07:52:13.785Z,1011.61
2018-10-19T07:53:13.841Z,1011.62
2018-10-19T07:54:13.781Z,1011.65
2018-10-19T07:55:13.709Z,1011.71
2018-10-19T07:56:13.753Z,1011.68
2018-10-19T07:57:13.657Z,1011.71
2018-10-19T07:58:13.630Z,1011.72
2018-10-19T07:59:13.661Z,1011.74
2018-10-19T08:00:13.590Z,1011.75
2018-10-19T08:01:13.570Z,1011.73
2018-10-19T08:02:13.581Z,1011.79
2018-10-19T08:03:13.495Z,1011.77
2018-10-19T08:04:13.471Z,1011.81
2018-10-19T08:05:13.510Z,1011.81
2018-10-19T08:06:13.415Z,1011.82
2018-10-19T08:07:13.392Z,1011.81
2018-10-19T08:08:13.411Z,1011.83
2018-10-19T08:09:13.339Z,1011.83
2018-10-19T08:10:13.316Z,1011.85
2018-10-19T08:11:13.397Z,1011.87
2018-10-19T08:12:13.262Z,1011.87
2018-10-19T08:13:13.238Z,1011.89
2018-10-19T08:14:13.266Z,1011.86
2018-10-19T08:15:13.183Z,1011.83
2018-10-19T08:16:13.167Z,1011.91
2018-10-19T08:17:13.186Z,1011.86
2018-10-19T08:18:13.110Z,1011.87
2018-10-19T08:19:13.087Z,1011.91
2018-10-19T08:20:13.177Z,1011.82
2018-10-19T08:21:14.194Z,1011.87
2018-10-19T08:22:13.003Z,1011.85
2018-10-19T08:23:13.102Z,1011.86
2018-10-19T08:24:12.951Z,1011.87
2018-10-19T08:25:12.937Z,1011.88
2018-10-19T08:26:12.951Z,1011.87
2018-10-19T08:27:12.893Z,1011.90
2018-10-19T08:28:12.853Z,1011.90
2018-10-19T08:29:12.848Z,1011.92
2018-10-19T08:30:12.796Z,1011.95
2018-10-19T08:31:12.773Z,1011.96
2018-10-19T08:32:12.825Z,1011.95
2018-10-19T08:33:12.740Z,1011.96
2018-10-19T08:34:12.856Z,1011.95
2018-10-19T08:35:12.774Z,1011.98
2018-10-19T08:36:12.637Z,1011.97
2018-10-19T08:37:12.619Z,1011.98
2018-10-19T08:38:12.593Z,1012.01
2018-10-19T08:39:12.559Z,1012.00
2018-10-19T08:40:12.539Z,1012.02
2018-10-19T08:41:12.591Z,1012.01
2018-10-19T08:42:12.485Z,1012.02
2018-10-19T08:43:12.577Z,1011.97
2018-10-19T08:44:12.434Z,1012.01
2018-10-19T08:45:12.437Z,1012.03
2018-10-19T08:46:12.378Z,1012.05
2018-10-19T08:47:12.402Z,1012.05
2018-10-19T08:48:12.329Z,1012.03
2018-10-19T08:49:12.382Z,1012.06
2018-10-19T08:50:12.280Z,1012.07
2018-10-19T08:51:12.299Z,1012.07
2018-10-19T08:52:12.227Z,1012.11
2018-10-19T08:53:12.289Z,1012.09
2018-10-19T08:54:12.171Z,1012.10
2018-10-19T08:55:12.234Z,1012.09
2018-10-19T08:56:12.120Z,1012.12
2018-10-19T08:57:12.107Z,1012.13
2018-10-19T08:58:12.105Z,1012.11
2018-10-19T08:59:12.150Z,1012.16
2018-10-19T09:00:12.047Z,1012.15
2018-10-19T09:01:11.992Z,1012.15
2018-10-19T09:02:11.966Z,1012.18
2018-10-19T09:03:12.007Z,1012.20
2018-10-19T09:04:11.985Z,1012.21
2018-10-19T09:05:11.928Z,1012.22
2018-10-19T09:06:11.878Z,1012.21
2018-10-19T09:07:11.839Z,1012.21
2018-10-19T09:08:11.819Z,1012.19
2018-10-19T09:09:11.830Z,1012.19
2018-10-19T09:10:11.759Z,1012.15
2018-10-19T09:11:11.735Z,1012.16
2018-10-19T09:12:11.704Z,1012.17
2018-10-19T09:13:11.677Z,1012.14
2018-10-19T09:14:11.668Z,1012.14
2018-10-19T09:15:11.711Z,1012.11
2018-10-19T09:16:11.602Z,1012.13
2018-10-19T09:17:11.639Z,1012.08
2018-10-19T09:18:11.547Z,1012.12
2018-10-19T09:19:11.522Z,1012.09
2018-10-19T09:20:11.701Z,1012.02
2018-10-19T09:21:11.554Z,1012.06
2018-10-19T09:22:11.447Z,1012.03
2018-10-19T09:23:11.479Z,1012.05
2018-10-19T09:24:11.397Z,1012.01
2018-10-19T09:25:11.367Z,1012.04
2018-10-19T09:26:11.347Z,1012.01
2018-10-19T09:27:11.390Z,1012.02
2018-10-19T09:28:11.295Z,1012.02
2018-10-19T09:29:11.315Z,1012.01
2018-10-19T09:30:11.257Z,1012.04
2018-10-19T09:31:11.208Z,1012.03
2018-10-19T09:32:11.236Z,1012.02
2018-10-19T09:33:11.270Z,1012.03
2018-10-19T09:34:11.137Z,1012.00
2018-10-19T09:35:11.131Z,1012.01
2018-10-19T09:36:11.244Z,1011.99
2018-10-19T09:37:11.063Z,1011.96
2018-10-19T09:38:11.029Z,1011.98
2018-10-19T09:39:11.043Z,1011.98
2018-10-19T09:40:11.030Z,1011.98
2018-10-19T09:41:10.986Z,1011.96
2018-10-19T09:42:11.007Z,1011.94
2018-10-19T09:43:10.974Z,1011.94
2018-10-19T09:44:10.873Z,1011.93
2018-10-19T09:45:10.861Z,1011.95
2018-10-19T09:46:10.827Z,1011.92
2018-10-19T09:47:10.859Z,1011.92
2018-10-19T09:48:10.776Z,1011.90
2018-10-19T09:49:10.825Z,1011.91
2018-10-19T09:50:10.721Z,1011.92
2018-10-19T09:51:10.783Z,1011.87
2018-10-19T09:52:10.671Z,1011.89
2018-10-19T09:53:10.738Z,1011.86
2018-10-19T09:54:10.624Z,1011.88
2018-10-19T09:55:10.632Z,1011.90
2018-10-19T09:56:10.614Z,1011.89
2018-10-19T09:57:10.615Z,1011.88
2018-10-19T09:58:10.522Z,1011.89
2018-10-19T09:59:10.555Z,1011.89
2018-10-19T10:00:10.470Z,1011.90
2018-10-19T10:01:10.453Z,1011.91
2018-10-19T10:02:10.522Z,1011.91
2018-10-19T10:03:10.468Z,1011.90
2018-10-19T10:04:10.460Z,1011.91
2018-10-19T10:05:10.411Z,1011.88
2018-10-19T10:06:10.310Z,1011.87
2018-10-19T10:07:10.309Z,1011.89
2018-10-19T10:08:10.265Z,1011.85
2018-10-19T10:09:10.306Z,1011.83
2018-10-19T10:10:10.216Z,1011.81
2018-10-19T10:11:10.242Z,1011.85
2018-10-19T10:12:10.156Z,1011.82
2018-10-19T10:13:10.211Z,1011.84
2018-10-19T10:14:10.109Z,1011.84
2018-10-19T10:15:10.331Z,1011.84
2018-10-19T10:16:10.057Z,1011.82
2018-10-19T10:17:10.045Z,1011.85
2018-10-19T10:18:09.999Z,1011.82
2018-10-19T10:19:10.005Z,1011.83
2018-10-19T10:20:09.954Z,1011.82
2018-10-19T10:21:09.923Z,1011.84
2018-10-19T10:22:09.941Z,1011.84
2018-10-19T10:23:09.877Z,1011.81
2018-10-19T10:24:09.848Z,1011.81
2018-10-19T10:25:09.876Z,1011.80
2018-10-19T10:26:09.802Z,1011.77
2018-10-19T10:27:09.780Z,1011.76
2018-10-19T10:28:09.827Z,1011.74
2018-10-19T10:29:09.724Z,1011.75
2018-10-19T10:30:09.695Z,1011.75
2018-10-19T10:31:09.750Z,1011.76
2018-10-19T10:32:09.662Z,1011.74
2018-10-19T10:33:09.618Z,1011.75
2018-10-19T10:34:09.607Z,1011.76
2018-10-19T10:35:09.571Z,1011.78
2018-10-19T10:36:09.541Z,1011.79
2018-10-19T10:37:09.568Z,1011.79
2018-10-19T10:38:09.494Z,1011.77
2018-10-19T10:39:09.700Z,1011.73
2018-10-19T10:40:09.511Z,1011.72
2018-10-19T10:41:09.415Z,1011.68
2018-10-19T10:42:09.389Z,1011.69
2018-10-19T10:43:09.442Z,1011.67
2018-10-19T10:44:09.337Z,1011.66
2018-10-19T10:45:09.317Z,1011.65
2018-10-19T10:46:09.344Z,1011.66
2018-10-19T10:47:09.432Z,1011.63
2018-10-19T10:48:09.238Z,1011.64
2018-10-19T10:49:09.252Z,1011.64
2018-10-19T10:50:09.188Z,1011.64
2018-10-19T10:51:09.159Z,1011.61
2018-10-19T10:52:09.198Z,1011.61
2018-10-19T10:53:09.167Z,1011.59
2018-10-19T10:54:09.098Z,1011.61
2018-10-19T10:55:09.068Z,1011.61
2018-10-19T10:56:09.031Z,1011.59
2018-10-19T10:57:09.009Z,1011.60
2018-10-19T10:58:08.989Z,1011.57
2018-10-19T10:59:09.016Z,1011.55
2018-10-19T11:00:08.931Z,1011.56
2018-10-19T11:01:08.959Z,1011.53
2018-10-19T11:02:08.883Z,1011.51
2018-10-19T11:03:08.856Z,1011.49
2018-10-19T11:04:08.902Z,1011.46
2018-10-19T11:05:08.799Z,1011.46
2018-10-19T11:06:08.780Z,1011.44
2018-10-19T11:07:08.821Z,1011.44
2018-10-19T11:08:08.723Z,1011.40
2018-10-19T11:09:08.704Z,1011.40
2018-10-19T11:10:08.695Z,1011.34
2018-10-19T11:11:08.648Z,1011.37
2018-10-19T11:12:08.625Z,1011.31
2018-10-19T11:13:08.761Z,1011.36
2018-10-19T11:14:08.567Z,1011.33
2018-10-19T11:15:08.542Z,1011.34
2018-10-19T11:16:08.577Z,1011.32
2018-10-19T11:17:08.493Z,1011.33
2018-10-19T11:18:08.469Z,1011.30
2018-10-19T11:19:08.515Z,1011.27
2018-10-19T11:20:08.413Z,1011.25
2018-10-19T11:21:08.394Z,1011.29
2018-10-19T11:22:08.372Z,1011.28
2018-10-19T11:23:08.337Z,1011.31
2018-10-19T11:24:08.377Z,1011.30
2018-10-19T11:25:08.351Z,1011.28
2018-10-19T11:26:08.266Z,1011.26
2018-10-19T11:27:08.239Z,1011.27
2018-10-19T11:28:08.275Z,1011.26
2018-10-19T11:29:08.184Z,1011.22
2018-10-19T11:30:08.160Z,1011.26
2018-10-19T11:31:08.178Z,1011.23
2018-10-19T11:32:08.107Z,1011.22
2018-10-19T11:33:08.082Z,1011.27
2018-10-19T11:34:08.074Z,1011.22
2018-10-19T11:35:08.027Z,1011.21
2018-10-19T11:36:08.009Z,1011.18
2018-10-19T11:37:08.097Z,1011.21
2018-10-19T11:38:08.051Z,1011.21
2018-10-19T11:39:07.928Z,1011.20
2018-10-19T11:40:07.949Z,1011.25
2018-10-19T11:41:07.924Z,1011.23
2018-10-19T11:42:07.847Z,1011.27
2018-10-19T11:43:07.901Z,1011.20
2018-10-19T11:44:07.800Z,1011.22
2018-10-19T11:45:07.778Z,1011.19
2018-10-19T11:46:07.766Z,1011.23
2018-10-19T11:47:07.745Z,1011.13
2018-10-19T11:48:07.741Z,1011.21
2018-10-19T11:49:07.763Z,1011.18
2018-10-19T11:50:07.649Z,1011.21
2018-10-19T11:51:07.621Z,1011.20
2018-10-19T11:52:07.601Z,1011.25
2018-10-19T11:53:07.563Z,1011.28
2018-10-19T11:54:07.546Z,1011.27
2018-10-19T11:55:07.563Z,1011.23
2018-10-19T11:56:07.491Z,1011.28
2018-10-19T11:57:07.525Z,1011.29
2018-10-19T11:58:07.509Z,1011.26
2018-10-19T11:59:07.413Z,1011.20
2018-10-19T12:00:07.389Z,1011.25
2018-10-19T12:01:07.396Z,1011.21
2018-10-19T12:02:07.344Z,1011.20
2018-10-19T12:03:07.307Z,1011.19
2018-10-19T12:04:07.344Z,1011.19
2018-10-19T12:05:07.257Z,1011.18